Time;durP1;ratioP1;P1;durP2;ratioP2;P2;SDS_P1;SDS_P2;PMS_P1;PMS_P2;Temp;Humidity;BMP_temperature;BMP_pressure;BME280_temperature;BME280_humidity;BME280_pressure;Samples;Min_cycle;Max_cycle;Signal;HPM_P1;HPM_P2
2021/01/27 00:00:08;;;;;;;1.92;1.20;;;3.30;89.60;;;;;;5125960;28;20036;-74
2021/01/27 00:02:35;;;;;;;2.03;1.17;;;3.30;89.50;;;;;;5124199;28;20397;-75
2021/01/27 00:05:03;;;;;;;2.50;1.40;;;3.30;89.50;;;;;;5125395;28;20050;-75
2021/01/27 00:07:29;;;;;;;2.13;1.10;;;3.40;89.50;;;;;;5125400;28;20070;-74
2021/01/27 00:09:55;;;;;;;2.35;1.08;;;3.20;89.40;;;;;;5124365;28;20033;-74
2021/01/27 00:12:20;;;;;;;2.65;1.20;;;3.20;89.40;;;;;;5125642;28;20046;-75
2021/01/27 00:14:46;;;;;;;2.05;1.15;;;3.20;89.40;;;;;;5125393;28;20043;-74
2021/01/27 00:17:12;;;;;;;2.55;1.38;;;3.10;89.40;;;;;;5125873;28;20031;-75
2021/01/27 00:19:37;;;;;;;2.83;1.35;;;3.20;89.40;;;;;;5124963;28;20050;-74
2021/01/27 00:22:03;;;;;;;2.38;1.05;;;3.20;89.40;;;;;;5124519;28;20036;-75
2021/01/27 00:24:29;;;;;;;1.95;1.10;;;3.20;89.40;;;;;;5104318;28;20051;-75
2021/01/27 00:26:54;;;;;;;2.40;1.10;;;3.10;89.30;;;;;;5123760;28;20184;-75
2021/01/27 00:29:20;;;;;;;1.92;1.05;;;3.20;89.40;;;;;;5124007;28;20065;-74
2021/01/27 00:31:46;;;;;;;1.60;1.10;;;3.20;89.40;;;;;;5105109;28;20043;-74
2021/01/27 00:34:12;;;;;;;1.13;1.00;;;3.10;89.30;;;;;;5123607;28;20063;-75
2021/01/27 00:36:37;;;;;;;2.10;1.33;;;3.10;89.30;;;;;;5103502;28;20444;-74
2021/01/27 00:39:03;;;;;;;1.60;1.00;;;3.10;89.20;;;;;;5124057;28;20035;-74
2021/01/27 00:41:29;;;;;;;3.05;1.48;;;3.20;89.20;;;;;;5122473;28;20088;-75
2021/01/27 00:43:55;;;;;;;2.72;1.48;;;3.20;89.20;;;;;;5124373;28;20041;-75
2021/01/27 00:46:20;;;;;;;2.10;1.30;;;3.10;89.00;;;;;;5104388;28;20058;-75
2021/01/27 00:48:48;;;;;;;2.45;1.25;;;3.20;89.00;;;;;;5105861;28;20053;-75
2021/01/27 00:51:15;;;;;;;2.15;1.42;;;3.10;88.90;;;;;;5124764;28;20082;-75
2021/01/27 00:53:42;;;;;;;3.38;1.50;;;3.10;88.90;;;;;;5123961;28;20043;-74
2021/01/27 00:56:07;;;;;;;4.18;1.80;;;3.10;88.80;;;;;;5125796;28;20043;-74
2021/01/27 00:58:33;;;;;;;2.78;1.42;;;3.10;88.80;;;;;;5125531;28;20070;-74
2021/01/27 01:00:59;;;;;;;2.03;1.27;;;3.10;88.70;;;;;;5125132;28;20032;-75
2021/01/27 01:03:27;;;;;;;2.88;1.30;;;3.10;88.70;;;;;;5126444;28;20044;-75
2021/01/27 01:05:53;;;;;;;1.60;1.27;;;3.10;88.70;;;;;;5125942;28;20042;-74
2021/01/27 01:08:20;;;;;;;2.65;1.70;;;3.10;88.60;;;;;;5124801;28;20044;-75
2021/01/27 01:10:49;;;;;;;2.65;1.30;;;3.10;88.60;;;;;;5125991;28;20480;-75
2021/01/27 01:13:18;;;;;;;3.40;1.50;;;3.10;88.60;;;;;;5105808;28;20044;-75
2021/01/27 01:15:44;;;;;;;2.58;1.48;;;3.10;88.60;;;;;;5126612;28;20394;-76
2021/01/27 01:18:11;;;;;;;2.92;1.58;;;3.10;88.60;;;;;;5090005;28;20039;-75
2021/01/27 01:20:37;;;;;;;2.70;1.50;;;3.10;88.50;;;;;;5087898;28;20039;-75
2021/01/27 01:23:03;;;;;;;4.13;1.73;;;3.00;88.50;;;;;;5120938;28;20044;-74
2021/01/27 01:25:33;;;;;;;2.83;1.48;;;3.10;88.50;;;;;;5126690;28;20032;-75
2021/01/27 01:27:59;;;;;;;2.60;1.42;;;3.10;88.40;;;;;;5108798;28;20043;-75
2021/01/27 01:30:31;;;;;;;2.95;1.60;;;3.00;88.40;;;;;;5125631;28;20044;-74
2021/01/27 01:33:01;;;;;;;2.25;1.30;;;3.00;88.40;;;;;;5125653;28;20035;-75
2021/01/27 01:35:27;;;;;;;3.13;1.50;;;3.10;88.40;;;;;;5105791;28;20401;-75
2021/01/27 01:37:53;;;;;;;2.78;1.40;;;3.00;88.30;;;;;;5123366;28;20043;-75
2021/01/27 01:40:24;;;;;;;2.38;1.27;;;3.10;88.30;;;;;;5122138;28;20035;-75
2021/01/27 01:43:06;;;;;;;2.08;1.30;;;3.10;88.30;;;;;;5104988;28;20089;-75
2021/01/27 01:45:35;;;;;;;2.38;1.40;;;3.00;88.20;;;;;;5122165;28;20101;-74
2021/01/27 01:48:12;;;;;;;1.80;1.00;;;3.10;88.20;;;;;;5106676;28;20080;-75
2021/01/27 01:50:37;;;;;;;1.75;1.00;;;3.10;88.20;;;;;;5123430;28;20058;-75
2021/01/27 01:53:03;;;;;;;1.50;0.88;;;3.10;88.20;;;;;;5123037;28;20047;-75
2021/01/27 01:55:29;;;;;;;1.92;1.05;;;3.10;88.20;;;;;;5122554;28;20031;-75
2021/01/27 01:57:55;;;;;;;2.13;1.10;;;3.10;88.30;;;;;;5122598;28;20039;-75
2021/01/27 02:00:25;;;;;;;2.20;1.45;;;3.00;88.10;;;;;;5122751;28;20032;-74
2021/01/27 02:02:51;;;;;;;1.98;1.17;;;3.10;88.20;;;;;;5121511;28;20070;-74
2021/01/27 02:05:21;;;;;;;2.42;1.42;;;3.10;88.20;;;;;;5123511;28;20046;-75
2021/01/27 02:07:47;;;;;;;1.83;1.23;;;3.10;88.10;;;;;;5123156;28;20119;-74
2021/01/27 02:10:15;;;;;;;1.80;1.15;;;3.10;88.10;;;;;;5121699;28;20139;-75
2021/01/27 02:12:58;;;;;;;1.92;1.20;;;3.10;88.10;;;;;;5120267;28;20047;-74
2021/01/27 02:15:50;;;;;;;2.30;1.30;;;3.10;88.10;;;;;;5104698;28;20048;-75
2021/01/27 02:18:33;;;;;;;1.35;1.05;;;3.10;88.70;;;;;;5120464;28;20032;-75
2021/01/27 02:21:33;;;;;;;2.10;1.30;;;3.10;88.10;;;;;;5121870;28;20110;-74
2021/01/27 02:24:33;;;;;;;1.85;1.20;;;3.10;88.10;;;;;;5120505;28;20043;-74
2021/01/27 02:27:13;;;;;;;2.38;1.20;;;3.10;88.10;;;;;;5120535;28;20047;-74
2021/01/27 02:30:00;;;;;;;3.67;1.48;;;3.10;88.10;;;;;;5119541;28;20407;-75
2021/01/27 02:32:54;;;;;;;1.95;1.13;;;3.00;88.00;;;;;;5121497;28;20049;-74
2021/01/27 02:35:36;;;;;;;2.17;1.20;;;3.00;88.00;;;;;;5086213;28;20051;-74
2021/01/27 02:38:11;;;;;;;2.22;1.05;;;3.00;88.70;;;;;;5119549;28;20040;-75
2021/01/27 02:40:48;;;;;;;2.25;1.10;;;3.00;88.10;;;;;;5119179;28;20089;-75
2021/01/27 02:43:34;;;;;;;2.05;1.10;;;2.90;88.00;;;;;;5100972;28;20108;-74
2021/01/27 02:46:14;;;;;;;1.50;0.80;;;3.00;88.10;;;;;;5119064;28;20039;-75
2021/01/27 02:48:49;;;;;;;2.03;1.00;;;3.00;88.10;;;;;;5117830;28;20039;-75
2021/01/27 02:51:20;;;;;;;0.95;0.70;;;3.00;88.10;;;;;;5119086;28;20099;-75
2021/01/27 02:53:53;;;;;;;1.02;0.70;;;3.00;88.20;;;;;;5118129;28;20039;-75
2021/01/27 02:56:27;;;;;;;1.58;0.82;;;3.00;88.20;;;;;;5119875;28;20076;-75
2021/01/27 02:59:25;;;;;;;1.52;0.98;;;3.00;88.20;;;;;;5122988;28;20050;-74
2021/01/27 03:02:05;;;;;;;1.58;0.90;;;3.00;88.20;;;;;;5120593;28;20124;-75
2021/01/27 03:04:38;;;;;;;1.50;1.00;;;3.00;88.20;;;;;;5088727;28;20040;-76
2021/01/27 03:07:05;;;;;;;2.13;0.90;;;3.00;88.20;;;;;;5121636;28;20040;-74
2021/01/27 03:09:56;;;;;;;1.92;0.95;;;3.00;88.20;;;;;;5104070;28;20052;-75
2021/01/27 03:12:22;;;;;;;2.35;1.30;;;3.00;88.30;;;;;;5119442;28;20118;-73
2021/01/27 03:14:48;;;;;;;1.55;1.00;;;3.00;88.20;;;;;;5107892;28;20066;-75
2021/01/27 03:17:18;;;;;;;1.45;0.90;;;3.10;88.20;;;;;;5127402;28;20054;-74
2021/01/27 03:20:01;;;;;;;1.45;1.00;;;3.00;88.10;;;;;;5125412;28;20074;-74
2021/01/27 03:22:39;;;;;;;1.35;0.90;;;3.10;88.20;;;;;;5122517;28;20044;-74
2021/01/27 03:25:10;;;;;;;1.48;0.85;;;2.90;88.10;;;;;;5126045;28;20130;-75
2021/01/27 03:27:41;;;;;;;1.63;0.90;;;3.00;88.10;;;;;;5124884;28;20042;-75
2021/01/27 03:30:11;;;;;;;1.65;0.90;;;3.00;88.80;;;;;;5124913;28;20055;-75
2021/01/27 03:32:52;;;;;;;1.02;0.68;;;3.00;88.30;;;;;;5125783;28;20036;-75
2021/01/27 03:35:32;;;;;;;0.88;0.70;;;3.00;88.20;;;;;;5123328;28;20043;-73
2021/01/27 03:38:06;;;;;;;1.52;0.70;;;3.00;88.30;;;;;;5103461;28;20085;-74
2021/01/27 03:40:33;;;;;;;1.88;0.90;;;3.00;88.30;;;;;;5122473;28;20125;-74
2021/01/27 03:43:17;;;;;;;1.30;0.80;;;3.00;88.30;;;;;;5104584;28;20107;-74
2021/01/27 03:45:49;;;;;;;1.13;0.77;;;2.90;88.20;;;;;;5122079;28;20104;-74
2021/01/27 03:48:32;;;;;;;1.02;0.65;;;3.00;88.30;;;;;;5124460;28;20032;-74
2021/01/27 03:51:00;;;;;;;1.05;0.70;;;2.90;88.30;;;;;;5122947;28;20039;-74
2021/01/27 03:53:30;;;;;;;0.70;0.68;;;3.00;88.40;;;;;;5121480;28;20070;-75
2021/01/27 03:56:29;;;;;;;1.42;0.65;;;3.00;88.40;;;;;;5124282;28;20044;-75
2021/01/27 03:58:55;;;;;;;0.88;0.50;;;2.90;88.40;;;;;;5121910;28;20039;-74
2021/01/27 04:01:23;;;;;;;1.00;0.60;;;2.90;88.50;;;;;;5104026;28;20068;-74
2021/01/27 04:03:52;;;;;;;1.15;0.63;;;2.90;88.60;;;;;;5103275;28;20470;-74
2021/01/27 04:06:18;;;;;;;0.85;0.68;;;2.90;88.60;;;;;;5102819;28;20054;-75
2021/01/27 04:08:43;;;;;;;0.80;0.50;;;2.90;88.60;;;;;;5122188;28;20043;-74
2021/01/27 04:11:09;;;;;;;0.68;0.60;;;2.90;88.70;;;;;;5121942;28;20047;-75
2021/01/27 04:13:36;;;;;;;0.93;0.60;;;2.80;88.70;;;;;;5104435;28;20047;-75
2021/01/27 04:16:02;;;;;;;1.60;0.70;;;2.80;88.80;;;;;;5121889;28;20051;-74
2021/01/27 04:18:29;;;;;;;0.98;0.70;;;2.80;88.80;;;;;;5122928;28;20039;-75
2021/01/27 04:20:55;;;;;;;0.90;0.73;;;2.90;88.90;;;;;;5120097;28;20040;-74
2021/01/27 04:23:21;;;;;;;2.42;0.98;;;2.80;88.70;;;;;;5121151;28;20040;-74
2021/01/27 04:25:47;;;;;;;1.05;0.80;;;2.80;88.80;;;;;;5121348;28;20534;-75
2021/01/27 04:28:13;;;;;;;0.75;0.60;;;2.80;89.30;;;;;;5121282;28;20071;-75
2021/01/27 04:30:39;;;;;;;1.02;0.65;;;2.80;88.70;;;;;;5123105;28;20405;-75
2021/01/27 04:33:08;;;;;;;1.05;0.77;;;2.80;88.70;;;;;;5121431;28;20065;-75
2021/01/27 04:35:34;;;;;;;0.73;0.60;;;2.80;88.70;;;;;;5121877;28;20505;-75
2021/01/27 04:38:00;;;;;;;1.77;0.63;;;2.80;88.70;;;;;;5122951;28;20031;-75
2021/01/27 04:40:34;;;;;;;0.65;0.55;;;2.90;88.80;;;;;;5121525;28;20451;-75
2021/01/27 04:43:02;;;;;;;2.58;0.70;;;2.80;88.70;;;;;;5120547;28;20044;-75
2021/01/27 04:45:28;;;;;;;0.65;0.50;;;2.90;88.80;;;;;;5121989;28;20051;-75
2021/01/27 04:48:10;;;;;;;0.95;0.63;;;2.90;88.90;;;;;;5122308;28;20044;-74
2021/01/27 04:50:38;;;;;;;;;;;2.90;88.90;;;;;;5120358;28;20046;-74
2021/01/27 04:53:43;;;;;;;1.00;0.90;;;3.00;88.90;;;;;;5120813;28;19911;-75
2021/01/27 04:56:45;;;;;;;0.85;0.55;;;2.80;88.80;;;;;;5107413;28;20043;-75
2021/01/27 04:59:25;;;;;;;1.23;0.90;;;2.80;88.80;;;;;;5121407;28;20036;-74
2021/01/27 05:02:19;;;;;;;1.25;0.70;;;2.80;88.80;;;;;;5103554;28;20497;-74
2021/01/27 05:05:03;;;;;;;2.08;0.80;;;2.80;88.90;;;;;;5105836;28;20074;-74
2021/01/27 05:07:40;;;;;;;1.27;0.80;;;2.80;88.90;;;;;;5122792;28;20047;-74
2021/01/27 05:10:08;;;;;;;1.20;0.73;;;2.70;88.90;;;;;;5106653;28;20039;-75
2021/01/27 05:12:41;;;;;;;0.80;0.52;;;2.80;89.00;;;;;;5104703;28;20040;-74
2021/01/27 05:15:09;;;;;;;1.10;0.60;;;2.80;89.00;;;;;;5125751;28;20087;-75
2021/01/27 05:17:40;;;;;;;0.82;0.60;;;2.80;89.00;;;;;;5128071;28;20039;-74
2021/01/27 05:20:06;;;;;;;0.50;0.50;;;2.80;89.10;;;;;;5123217;28;20054;-74
2021/01/27 05:22:32;;;;;;;0.77;0.60;;;2.80;89.10;;;;;;5124809;28;20035;-74
2021/01/27 05:24:58;;;;;;;1.48;0.80;;;2.80;89.20;;;;;;5110532;28;20911;-75
2021/01/27 05:27:35;;;;;;;1.98;0.65;;;2.70;89.20;;;;;;5121984;28;20470;-74
2021/01/27 05:30:17;;;;;;;1.08;0.60;;;2.70;89.20;;;;;;5121891;28;20035;-74
2021/01/27 05:32:55;;;;;;;0.70;0.57;;;2.70;89.30;;;;;;5123050;28;20039;-74
2021/01/27 05:35:27;;;;;;;1.17;0.60;;;2.70;89.30;;;;;;5124860;28;20036;-74
2021/01/27 05:37:53;;;;;;;1.35;0.80;;;2.70;89.40;;;;;;5123044;28;20048;-74
2021/01/27 05:40:33;;;;;;;0.60;0.60;;;2.70;89.50;;;;;;5121846;28;20122;-75
2021/01/27 05:43:12;;;;;;;1.52;0.73;;;2.70;89.60;;;;;;5124493;28;20036;-74
2021/01/27 05:45:44;;;;;;;1.17;0.60;;;2.70;89.60;;;;;;5125402;28;20048;-73
2021/01/27 05:48:26;;;;;;;1.00;0.65;;;2.70;89.70;;;;;;5102409;28;20043;-74
2021/01/27 05:51:11;;;;;;;1.38;0.70;;;2.60;89.80;;;;;;5123414;28;20065;-74
2021/01/27 05:53:37;;;;;;;1.38;0.80;;;2.60;89.80;;;;;;5122344;28;20130;-74
2021/01/27 05:56:13;;;;;;;1.15;0.57;;;2.50;89.80;;;;;;5124284;28;20040;-74
2021/01/27 05:58:46;;;;;;;0.65;0.60;;;2.60;90.00;;;;;;5119981;28;20443;-74
2021/01/27 06:01:42;;;;;;;0.75;0.60;;;2.60;90.00;;;;;;5124873;28;20040;-74
2021/01/27 06:04:18;;;;;;;0.60;0.50;;;2.50;90.00;;;;;;5103751;28;20057;-74
2021/01/27 06:06:57;;;;;;;1.48;0.50;;;2.60;90.00;;;;;;5122934;28;20048;-74
2021/01/27 06:09:41;;;;;;;1.35;0.50;;;2.50;90.00;;;;;;5121470;28;20039;-74
2021/01/27 06:12:28;;;;;;;0.77;0.63;;;2.50;90.10;;;;;;5120147;28;20040;-74
2021/01/27 06:15:15;;;;;;;0.77;0.50;;;2.60;90.10;;;;;;5119561;28;20051;-75
2021/01/27 06:17:44;;;;;;;1.30;0.85;;;2.50;90.10;;;;;;5119602;28;20052;-75
2021/01/27 06:20:29;;;;;;;0.68;0.50;;;2.50;90.10;;;;;;5122107;28;20040;-75
2021/01/27 06:23:34;;;;;;;0.95;0.63;;;2.40;90.10;;;;;;5117352;28;20043;-75
2021/01/27 06:26:33;;;;;;;0.57;0.47;;;2.50;90.10;;;;;;5108120;28;20050;-75
2021/01/27 06:29:24;;;;;;;0.88;0.52;;;2.40;90.20;;;;;;5100372;28;20045;-75
2021/01/27 06:32:24;;;;;;;0.93;0.60;;;2.40;90.20;;;;;;5119506;28;20995;-75
2021/01/27 06:35:12;;;;;;;0.80;0.60;;;2.40;90.20;;;;;;5117726;28;20028;-75
2021/01/27 06:37:50;;;;;;;0.75;0.40;;;2.40;90.30;;;;;;5119637;28;20055;-75
2021/01/27 06:40:34;;;;;;;0.85;0.60;;;2.40;90.30;;;;;;5119058;28;20043;-75
2021/01/27 06:43:27;;;;;;;0.60;0.40;;;2.40;90.30;;;;;;5119290;28;20370;-75
2021/01/27 06:46:25;;;;;;;1.30;0.60;;;2.40;90.30;;;;;;5104182;28;20074;-75
2021/01/27 06:49:15;;;;;;;0.40;0.40;;;2.40;90.30;;;;;;5100936;28;20406;-76
2021/01/27 06:52:05;;;;;;;0.68;0.47;;;2.40;90.30;;;;;;5121469;28;20092;-75
2021/01/27 06:54:55;;;;;;;1.00;0.60;;;2.40;90.40;;;;;;5121205;28;20048;-75
2021/01/27 06:57:30;;;;;;;0.70;0.60;;;2.30;90.40;;;;;;5126381;28;20074;-75
2021/01/27 07:00:25;;;;;;;0.95;0.70;;;2.40;90.40;;;;;;5125997;28;20044;-75
2021/01/27 07:03:12;;;;;;;0.55;0.52;;;2.30;90.40;;;;;;5108219;28;20070;-75
2021/01/27 07:06:06;;;;;;;0.70;0.60;;;2.30;90.40;;;;;;5126397;28;20043;-75
2021/01/27 07:09:06;;;;;;;1.65;0.77;;;2.30;90.40;;;;;;5121027;28;20048;-75
2021/01/27 07:12:02;;;;;;;0.65;0.43;;;2.30;90.50;;;;;;5105395;28;20068;-75
2021/01/27 07:14:58;;;;;;;0.40;0.40;;;2.30;90.50;;;;;;5128120;28;20036;-76
2021/01/27 07:17:51;;;;;;;0.52;0.43;;;2.30;90.50;;;;;;5128371;28;20048;-76
2021/01/27 07:20:26;;;;;;;0.70;0.45;;;2.30;90.60;;;;;;5128675;28;20032;-75
2021/01/27 07:23:07;;;;;;;0.38;0.35;;;2.40;90.60;;;;;;5129477;28;20043;-76
2021/01/27 07:25:54;;;;;;;0.20;0.20;;;2.30;90.50;;;;;;5129781;28;20051;-75
2021/01/27 07:28:36;;;;;;;0.50;0.50;;;2.40;90.60;;;;;;5130529;28;20074;-75
2021/01/27 07:31:27;;;;;;;0.32;0.30;;;2.50;90.60;;;;;;5129818;28;20039;-75
2021/01/27 07:34:15;;;;;;;0.55;0.40;;;2.40;90.60;;;;;;5129512;28;20040;-75
2021/01/27 07:37:05;;;;;;;0.70;0.45;;;2.40;90.60;;;;;;5129665;28;20074;-75
2021/01/27 07:39:50;;;;;;;0.73;0.60;;;2.40;90.60;;;;;;5126104;28;20035;-75
2021/01/27 07:42:23;;;;;;;0.50;0.47;;;2.40;90.60;;;;;;5127078;28;20040;-75
2021/01/27 07:44:54;;;;;;;0.60;0.45;;;2.40;90.60;;;;;;5116289;28;20039;-75
2021/01/27 07:47:34;;;;;;;0.73;0.50;;;2.40;90.60;;;;;;5132968;28;20043;-75
2021/01/27 07:50:00;;;;;;;1.17;0.65;;;2.40;90.70;;;;;;5131605;28;20031;-75
2021/01/27 07:52:32;;;;;;;1.05;0.70;;;2.40;90.60;;;;;;5131435;28;20035;-75
2021/01/27 07:55:18;;;;;;;1.30;0.73;;;2.40;90.70;;;;;;5133649;28;20047;-75
2021/01/27 07:58:09;;;;;;;0.70;0.60;;;2.40;90.70;;;;;;5132815;28;20156;-75
2021/01/27 08:00:59;;;;;;;0.60;0.50;;;2.40;90.70;;;;;;5115243;28;20103;-76
2021/01/27 08:03:42;;;;;;;1.10;0.65;;;2.50;90.70;;;;;;5132320;28;20040;-76
2021/01/27 08:06:13;;;;;;;0.80;0.70;;;2.50;90.70;;;;;;5114823;28;20043;-75
2021/01/27 08:08:51;;;;;;;1.00;0.60;;;2.50;91.00;;;;;;5130968;28;20073;-77
2021/01/27 08:11:28;;;;;;;0.45;0.45;;;2.50;90.70;;;;;;5129245;28;20039;-76
2021/01/27 08:13:53;;;;;;;0.82;0.60;;;2.50;90.70;;;;;;5132070;28;20064;-76
2021/01/27 08:16:30;;;;;;;0.90;0.63;;;2.50;90.70;;;;;;5126351;28;20110;-77
2021/01/27 08:19:21;;;;;;;0.80;0.60;;;2.50;90.70;;;;;;5132398;28;20046;-77
2021/01/27 08:21:53;;;;;;;1.35;1.10;;;2.60;90.80;;;;;;5107086;28;20446;-74
2021/01/27 08:24:51;;;;;;;1.00;0.88;;;2.50;90.70;;;;;;5123352;28;20058;-76
2021/01/27 08:27:27;;;;;;;1.20;0.90;;;2.60;90.70;;;;;;5092657;28;20120;-75
2021/01/27 08:30:47;;;;;;;1.70;1.08;;;2.60;90.70;;;;;;5119381;28;20078;-78
2021/01/27 08:37:02;;;;;;;1.50;1.05;;;2.60;90.70;;;;;;5018289;28;20108;-78
2021/01/27 08:43:02;;;;;;;1.40;0.93;;;2.70;90.70;;;;;;4973678;28;20388;-75
2021/01/27 08:45:46;;;;;;;1.35;0.95;;;2.70;90.70;;;;;;4973960;28;20347;-81
2021/01/27 08:51:45;;;;;;;1.55;0.95;;;2.70;90.70;;;;;;4943093;29;20191;-79
2021/01/27 08:54:47;;;;;;;1.02;0.93;;;2.80;90.80;;;;;;4929062;29;20454;-77
2021/01/27 08:57:47;;;;;;;1.10;0.88;;;2.80;90.80;;;;;;4940133;29;20044;-78
2021/01/27 09:00:44;;;;;;;0.80;0.70;;;2.70;90.80;;;;;;4918244;29;20043;-79
2021/01/27 09:03:50;;;;;;;0.95;0.80;;;2.80;90.80;;;;;;4933650;29;20044;-79
2021/01/27 09:06:30;;;;;;;0.73;0.70;;;2.80;90.80;;;;;;4910022;29;20040;-79
2021/01/27 09:09:31;;;;;;;1.33;0.85;;;2.80;90.80;;;;;;4940189;29;20545;-84
2021/01/27 09:15:02;;;;;;;0.80;0.80;;;2.90;90.80;;;;;;4923979;29;20072;-81
2021/01/27 09:17:36;;;;;;;1.10;0.80;;;2.90;90.80;;;;;;4889479;29;20048;-79
2021/01/27 09:20:04;;;;;;;1.20;0.80;;;2.90;90.90;;;;;;4890673;29;20063;-81
2021/01/27 09:23:00;;;;;;;1.00;0.80;;;3.00;90.90;;;;;;4933546;29;20035;-79
2021/01/27 09:25:33;;;;;;;1.00;0.70;;;3.00;90.90;;;;;;4950264;29;20120;-81
2021/01/27 09:28:01;;;;;;;0.65;0.60;;;3.00;90.90;;;;;;4941859;28;20055;-78
2021/01/27 09:30:27;;;;;;;1.13;0.70;;;3.10;90.90;;;;;;4943434;28;20043;-76
2021/01/27 09:33:08;;;;;;;0.88;0.70;;;3.00;90.90;;;;;;4951729;29;20130;-77
2021/01/27 09:35:35;;;;;;;0.70;0.70;;;3.00;90.90;;;;;;4946157;29;20196;-78
2021/01/27 09:38:06;;;;;;;0.80;0.50;;;3.00;90.90;;;;;;4937430;29;20157;-77
2021/01/27 09:40:38;;;;;;;0.73;0.60;;;3.10;91.00;;;;;;4941091;29;20094;-78
2021/01/27 09:43:18;;;;;;;0.70;0.45;;;3.10;91.00;;;;;;4962248;29;20043;-79
2021/01/27 09:45:48;;;;;;;0.52;0.43;;;3.10;91.00;;;;;;4970366;28;20050;-79
2021/01/27 09:48:17;;;;;;;0.75;0.65;;;3.10;91.00;;;;;;4979139;28;20051;-79
2021/01/27 09:50:58;;;;;;;0.98;0.60;;;3.10;91.00;;;;;;4996612;28;20515;-78
2021/01/27 09:53:26;;;;;;;1.38;0.90;;;3.20;91.00;;;;;;5050921;28;20041;-77
2021/01/27 09:55:55;;;;;;;1.08;0.80;;;3.20;91.00;;;;;;5033782;28;20498;-77
2021/01/27 09:58:22;;;;;;;1.35;1.00;;;3.30;91.00;;;;;;5051006;28;20120;-78
2021/01/27 10:00:50;;;;;;;1.42;0.90;;;3.20;91.00;;;;;;5041739;28;20095;-76
2021/01/27 10:03:36;;;;;;;1.52;1.20;;;3.30;91.10;;;;;;5061032;28;20048;-75
2021/01/27 10:06:02;;;;;;;1.40;0.98;;;3.30;91.10;;;;;;5054092;28;20176;-77
2021/01/27 10:08:34;;;;;;;1.75;1.00;;;3.30;91.10;;;;;;5055507;28;20088;-77
2021/01/27 10:11:11;;;;;;;1.08;0.90;;;3.30;91.10;;;;;;5029275;28;20048;-76
2021/01/27 10:13:41;;;;;;;1.30;0.90;;;3.30;91.10;;;;;;5060954;28;20048;-77
2021/01/27 10:16:11;;;;;;;1.00;0.80;;;3.40;91.10;;;;;;5070016;28;20573;-79
2021/01/27 10:18:39;;;;;;;1.00;0.80;;;3.40;91.10;;;;;;5001217;28;20059;-77
2021/01/27 10:21:08;;;;;;;1.25;0.88;;;3.60;91.20;;;;;;5055804;28;20040;-77
2021/01/27 10:23:44;;;;;;;1.67;1.02;;;3.30;91.10;;;;;;5069126;28;20142;-81
2021/01/27 10:26:24;;;;;;;1.73;1.10;;;3.40;91.10;;;;;;5051703;28;20053;-77
2021/01/27 10:29:11;;;;;;;1.67;1.30;;;3.40;91.10;;;;;;5045635;28;20048;-78
2021/01/27 10:35:30;;;;;;;1.75;1.20;;;3.60;91.20;;;;;;4953128;28;20580;-79
2021/01/27 10:38:17;;;;;;;1.75;1.13;;;3.60;91.20;;;;;;4957312;28;20100;-77
2021/01/27 10:41:09;;;;;;;1.55;1.10;;;3.50;91.10;;;;;;4946143;28;20094;-76
2021/01/27 10:46:34;;;;;;;1.52;1.00;;;3.70;91.10;;;;;;4938390;28;19918;-76
2021/01/27 10:49:00;;;;;;;2.00;1.10;;;3.70;91.10;;;;;;4952901;28;20054;-79
2021/01/27 10:51:26;;;;;;;2.10;1.20;;;3.70;91.10;;;;;;4953014;29;20043;-77
2021/01/27 10:54:04;;;;;;;1.75;1.00;;;3.60;91.10;;;;;;4953159;28;20053;-78
2021/01/27 10:56:30;;;;;;;1.45;1.10;;;3.70;91.20;;;;;;4953129;29;20094;-77
2021/01/27 10:59:16;;;;;;;2.05;1.20;;;3.80;91.20;;;;;;4935687;29;20059;-78
2021/01/27 11:01:42;;;;;;;1.65;1.10;;;3.70;91.20;;;;;;4950014;29;20524;-76
2021/01/27 11:04:07;;;;;;;2.03;1.27;;;3.80;91.20;;;;;;4952266;29;20047;-77
2021/01/27 11:06:33;;;;;;;2.20;1.25;;;3.80;91.20;;;;;;5000770;28;20041;-77
2021/01/27 11:08:59;;;;;;;2.30;1.33;;;3.80;91.20;;;;;;5009978;28;20551;-78
2021/01/27 11:11:32;;;;;;;2.55;1.70;;;3.80;91.20;;;;;;5041272;28;20490;-80
2021/01/27 11:13:58;;;;;;;2.88;1.65;;;3.80;91.20;;;;;;5070129;28;20044;-75
2021/01/27 11:16:23;;;;;;;3.05;1.85;;;3.90;91.20;;;;;;5035963;28;20098;-79
2021/01/27 11:18:49;;;;;;;2.33;1.38;;;3.90;91.20;;;;;;5038186;28;20064;-78
2021/01/27 11:21:15;;;;;;;3.60;1.80;;;3.90;91.30;;;;;;5073092;28;20040;-77
2021/01/27 11:23:41;;;;;;;3.22;1.90;;;4.00;91.30;;;;;;5073222;28;20136;-77
2021/01/27 11:26:07;;;;;;;3.65;2.15;;;4.00;91.30;;;;;;5056276;28;20151;-77
2021/01/27 11:28:33;;;;;;;2.35;1.77;;;4.00;91.20;;;;;;5073253;28;20044;-77
2021/01/27 11:30:59;;;;;;;3.20;2.00;;;4.10;91.30;;;;;;5057051;28;20107;-77
2021/01/27 11:33:25;;;;;;;2.90;1.80;;;4.10;91.30;;;;;;5040375;28;20059;-78
2021/01/27 11:35:52;;;;;;;3.67;2.00;;;4.10;91.30;;;;;;5056832;28;20041;-77
2021/01/27 11:38:19;;;;;;;2.58;1.77;;;4.10;91.30;;;;;;5074141;28;20052;-78
2021/01/27 11:40:45;;;;;;;4.40;1.77;;;4.10;91.30;;;;;;5040889;28;20055;-77
2021/01/27 11:43:11;;;;;;;3.72;2.03;;;4.20;91.30;;;;;;5074225;28;20053;-77
2021/01/27 11:45:36;;;;;;;3.53;2.08;;;4.20;91.30;;;;;;5073872;28;20090;-77
2021/01/27 11:48:02;;;;;;;3.35;1.88;;;4.20;91.30;;;;;;5074293;28;20111;-78
2021/01/27 11:50:30;;;;;;;3.75;1.90;;;4.20;91.40;;;;;;5073276;28;20040;-78
2021/01/27 11:52:57;;;;;;;2.60;1.52;;;4.30;91.40;;;;;;5056655;28;20490;-78
2021/01/27 11:55:23;;;;;;;3.63;2.00;;;4.20;91.40;;;;;;5074438;28;20078;-77
2021/01/27 11:57:49;;;;;;;4.32;2.22;;;4.30;91.40;;;;;;5107677;28;20035;-77
2021/01/27 12:00:18;;;;;;;4.65;2.53;;;4.30;91.40;;;;;;5096819;28;20397;-76
2021/01/27 12:02:44;;;;;;;3.88;2.17;;;4.30;91.40;;;;;;5114997;28;20035;-77
2021/01/27 12:05:11;;;;;;;3.83;2.10;;;4.40;91.40;;;;;;5095667;28;20047;-77
2021/01/27 12:07:37;;;;;;;4.35;2.42;;;4.40;91.40;;;;;;5097287;28;20093;-77
2021/01/27 12:10:04;;;;;;;4.15;2.20;;;4.40;91.40;;;;;;5097082;28;20119;-77
2021/01/27 12:12:30;;;;;;;4.05;2.10;;;4.40;91.50;;;;;;5096742;28;20031;-77
2021/01/27 12:14:55;;;;;;;4.68;2.65;;;4.50;91.50;;;;;;5120783;28;20039;-77
2021/01/27 12:17:21;;;;;;;4.68;2.53;;;4.50;91.50;;;;;;5106208;28;20092;-75
2021/01/27 12:19:47;;;;;;;3.28;2.05;;;4.60;91.50;;;;;;5128944;28;20043;-76
2021/01/27 12:22:12;;;;;;;3.50;2.03;;;4.60;91.50;;;;;;5111001;28;20082;-77
2021/01/27 12:24:39;;;;;;;4.40;2.20;;;4.60;91.50;;;;;;5132523;28;20024;-76
2021/01/27 12:27:06;;;;;;;4.38;2.15;;;4.60;91.50;;;;;;5131756;28;20514;-76
2021/01/27 12:29:32;;;;;;;4.55;2.22;;;4.80;91.50;;;;;;5133324;28;20051;-76
2021/01/27 12:31:58;;;;;;;4.25;2.30;;;4.70;91.50;;;;;;5111748;28;20071;-76
2021/01/27 12:34:23;;;;;;;3.72;2.10;;;4.70;91.50;;;;;;5125544;28;20039;-76
2021/01/27 12:36:50;;;;;;;4.40;2.42;;;4.70;91.50;;;;;;5126387;28;20051;-76
2021/01/27 12:39:16;;;;;;;4.20;2.03;;;4.80;91.50;;;;;;5125919;28;20035;-76
2021/01/27 12:41:43;;;;;;;4.40;2.22;;;4.80;91.50;;;;;;5123105;28;20043;-76
2021/01/27 12:44:08;;;;;;;3.45;2.03;;;4.90;91.60;;;;;;5100540;28;20093;-75
2021/01/27 12:46:34;;;;;;;4.20;2.25;;;4.80;91.50;;;;;;5121632;28;20044;-75
2021/01/27 12:49:01;;;;;;;4.40;2.35;;;5.00;91.60;;;;;;5118861;28;20043;-76
2021/01/27 12:51:26;;;;;;;4.63;2.50;;;4.90;91.50;;;;;;5122300;28;20044;-76
2021/01/27 12:53:52;;;;;;;4.13;1.85;;;5.00;91.60;;;;;;5128922;28;20035;-77
2021/01/27 12:56:18;;;;;;;4.30;2.20;;;5.00;91.60;;;;;;5128189;28;20393;-76
2021/01/27 12:58:44;;;;;;;3.78;2.15;;;5.00;91.60;;;;;;5099039;28;20086;-78
2021/01/27 13:01:10;;;;;;;3.85;2.05;;;5.00;91.60;;;;;;5115055;28;20036;-76
2021/01/27 13:03:35;;;;;;;3.58;2.00;;;5.10;91.60;;;;;;5114600;28;20478;-77
2021/01/27 13:06:02;;;;;;;4.03;2.00;;;5.00;91.60;;;;;;5096221;28;20047;-76
2021/01/27 13:08:33;;;;;;;5.50;2.22;;;5.10;91.60;;;;;;5096422;28;20096;-79
2021/01/27 13:10:59;;;;;;;;;;;5.10;91.60;;;;;;5096895;28;20047;-79
2021/01/27 13:13:24;;;;;;;2.63;1.70;;;5.10;91.60;;;;;;5095785;28;20404;-78
2021/01/27 13:15:52;;;;;;;4.40;2.17;;;5.10;91.60;;;;;;5078783;28;20056;-78
2021/01/27 13:18:18;;;;;;;4.35;1.90;;;5.10;91.60;;;;;;5118300;28;20036;-78
2021/01/27 13:24:32;;;;;;;3.97;2.30;;;5.10;91.60;;;;;;5051154;28;20076;-84
2021/01/27 13:27:05;;;;;;;3.22;1.92;;;5.30;91.70;;;;;;5038451;28;20061;-85
2021/01/27 13:37:25;;;;;;;4.47;2.10;;;5.40;91.60;;;;;;4976175;28;20058;-81
2021/01/27 13:43:52;;;;;;;5.43;2.60;;;5.50;91.50;;;;;;4975187;28;20077;-80
2021/01/27 13:46:18;;;;;;;4.32;2.40;;;5.50;91.70;;;;;;4957577;28;20039;-79
2021/01/27 13:48:43;;;;;;;5.63;3.05;;;5.50;91.50;;;;;;4957752;28;20094;-79
2021/01/27 13:54:12;;;;;;;6.95;3.28;;;5.60;91.50;;;;;;4975987;28;20043;-83
2021/01/27 13:56:40;;;;;;;5.90;3.08;;;5.60;91.50;;;;;;4962223;28;20506;-76
2021/01/27 13:59:06;;;;;;;5.78;2.88;;;5.60;91.50;;;;;;4978091;28;20042;-79
2021/01/27 14:01:32;;;;;;;6.43;3.35;;;5.70;91.60;;;;;;4978150;28;20085;-77
2021/01/27 14:03:58;;;;;;;5.60;3.08;;;5.70;91.60;;;;;;4980357;28;20046;-78
2021/01/27 14:06:26;;;;;;;5.85;3.13;;;5.80;91.60;;;;;;4999449;28;20147;-82
2021/01/27 14:08:52;;;;;;;6.30;3.05;;;5.70;91.60;;;;;;5000179;28;20050;-77
2021/01/27 14:11:17;;;;;;;5.28;2.72;;;5.60;91.60;;;;;;5121812;28;20061;-76